sensor_id;sensor_type;location;lat;lon;timestamp;P1;durP1;ratioP1;P2;durP2;ratioP2
72728;SDS011;60843;52.062;4.508;2023-03-23T00:02:27;5.25;;;2.13;;
72728;SDS011;60843;52.062;4.508;2023-03-23T00:04:54;5.65;;;2.10;;
72728;SDS011;60843;52.062;4.508;2023-03-23T00:07:20;5.35;;;1.77;;
72728;SDS011;60843;52.062;4.508;2023-03-23T00:09:47;7.05;;;2.10;;
72728;SDS011;60843;52.062;4.508;2023-03-23T00:12:18;9.15;;;2.00;;
72728;SDS011;60843;52.062;4.508;2023-03-23T00:14:44;4.68;;;2.13;;
72728;SDS011;60843;52.062;4.508;2023-03-23T00:17:10;5.13;;;1.83;;
72728;SDS011;60843;52.062;4.508;2023-03-23T00:19:39;8.52;;;1.98;;
72728;SDS011;60843;52.062;4.508;2023-03-23T00:22:11;2.20;;;1.60;;
72728;SDS011;60843;52.062;4.508;2023-03-23T00:24:42;5.05;;;1.85;;
72728;SDS011;60843;52.062;4.508;2023-03-23T00:27:09;4.28;;;1.45;;
72728;SDS011;60843;52.062;4.508;2023-03-23T00:29:37;6.00;;;2.38;;
72728;SDS011;60843;52.062;4.508;2023-03-23T00:32:03;5.57;;;1.60;;
72728;SDS011;60843;52.062;4.508;2023-03-23T00:34:29;5.10;;;2.13;;
72728;SDS011;60843;52.062;4.508;2023-03-23T00:39:28;2.05;;;1.23;;
72728;SDS011;60843;52.062;4.508;2023-03-23T00:41:54;4.22;;;1.40;;
72728;SDS011;60843;52.062;4.508;2023-03-23T00:44:25;3.83;;;1.70;;
72728;SDS011;60843;52.062;4.508;2023-03-23T00:46:55;5.28;;;1.52;;
72728;SDS011;60843;52.062;4.508;2023-03-23T00:49:21;7.03;;;1.55;;
72728;SDS011;60843;52.062;4.508;2023-03-23T00:51:51;5.22;;;1.83;;
72728;SDS011;60843;52.062;4.508;2023-03-23T00:57:11;5.90;;;2.05;;
72728;SDS011;60843;52.062;4.508;2023-03-23T00:59:36;7.10;;;1.92;;
72728;SDS011;60843;52.062;4.508;2023-03-23T01:02:02;3.80;;;1.50;;
72728;SDS011;60843;52.062;4.508;2023-03-23T01:04:34;2.80;;;1.23;;
72728;SDS011;60843;52.062;4.508;2023-03-23T01:07:03;5.47;;;1.65;;
72728;SDS011;60843;52.062;4.508;2023-03-23T01:09:29;7.72;;;1.58;;
72728;SDS011;60843;52.062;4.508;2023-03-23T01:11:55;6.43;;;1.70;;
72728;SDS011;60843;52.062;4.508;2023-03-23T01:14:21;6.30;;;1.42;;
72728;SDS011;60843;52.062;4.508;2023-03-23T01:16:46;5.10;;;1.75;;
72728;SDS011;60843;52.062;4.508;2023-03-23T01:19:12;5.13;;;1.73;;
72728;SDS011;60843;52.062;4.508;2023-03-23T01:21:38;6.65;;;1.80;;
72728;SDS011;60843;52.062;4.508;2023-03-23T01:24:04;4.55;;;1.30;;
72728;SDS011;60843;52.062;4.508;2023-03-23T01:26:30;2.88;;;1.35;;
72728;SDS011;60843;52.062;4.508;2023-03-23T01:28:55;4.20;;;1.52;;
72728;SDS011;60843;52.062;4.508;2023-03-23T01:31:22;7.47;;;2.00;;
72728;SDS011;60843;52.062;4.508;2023-03-23T01:33:49;2.88;;;1.30;;
72728;SDS011;60843;52.062;4.508;2023-03-23T01:36:21;2.63;;;1.30;;
72728;SDS011;60843;52.062;4.508;2023-03-23T01:38:48;4.22;;;1.45;;
72728;SDS011;60843;52.062;4.508;2023-03-23T01:41:15;2.58;;;0.77;;
72728;SDS011;60843;52.062;4.508;2023-03-23T01:46:19;2.22;;;0.98;;
72728;SDS011;60843;52.062;4.508;2023-03-23T01:48:47;3.53;;;1.20;;
72728;SDS011;60843;52.062;4.508;2023-03-23T01:51:14;3.30;;;1.15;;
72728;SDS011;60843;52.062;4.508;2023-03-23T01:54:00;2.65;;;1.33;;
72728;SDS011;60843;52.062;4.508;2023-03-23T01:56:28;2.55;;;1.10;;
72728;SDS011;60843;52.062;4.508;2023-03-23T01:58:58;7.63;;;1.23;;
72728;SDS011;60843;52.062;4.508;2023-03-23T02:01:23;2.03;;;1.25;;
72728;SDS011;60843;52.062;4.508;2023-03-23T02:03:50;2.50;;;1.00;;
72728;SDS011;60843;52.062;4.508;2023-03-23T02:06:17;3.00;;;1.40;;
72728;SDS011;60843;52.062;4.508;2023-03-23T02:08:43;4.97;;;1.27;;
72728;SDS011;60843;52.062;4.508;2023-03-23T02:11:20;3.92;;;1.27;;
72728;SDS011;60843;52.062;4.508;2023-03-23T02:13:47;3.58;;;1.05;;
72728;SDS011;60843;52.062;4.508;2023-03-23T02:38:02;2.47;;;1.38;;
72728;SDS011;60843;52.062;4.508;2023-03-23T02:40:33;4.50;;;1.58;;
72728;SDS011;60843;52.062;4.508;2023-03-23T02:43:03;3.55;;;1.33;;
72728;SDS011;60843;52.062;4.508;2023-03-23T02:45:32;6.30;;;1.20;;
72728;SDS011;60843;52.062;4.508;2023-03-23T02:47:58;5.80;;;1.30;;
72728;SDS011;60843;52.062;4.508;2023-03-23T02:50:25;3.95;;;1.20;;
72728;SDS011;60843;52.062;4.508;2023-03-23T02:52:52;3.28;;;0.85;;
72728;SDS011;60843;52.062;4.508;2023-03-23T02:55:19;4.60;;;1.02;;
72728;SDS011;60843;52.062;4.508;2023-03-23T03:00:14;2.90;;;1.73;;
72728;SDS011;60843;52.062;4.508;2023-03-23T03:02:47;5.05;;;1.10;;
72728;SDS011;60843;52.062;4.508;2023-03-23T03:11:20;4.93;;;1.23;;
72728;SDS011;60843;52.062;4.508;2023-03-23T03:13:55;3.50;;;1.05;;
72728;SDS011;60843;52.062;4.508;2023-03-23T03:19:26;3.22;;;1.05;;
72728;SDS011;60843;52.062;4.508;2023-03-23T03:21:54;3.58;;;1.08;;
72728;SDS011;60843;52.062;4.508;2023-03-23T03:24:25;5.32;;;1.60;;
72728;SDS011;60843;52.062;4.508;2023-03-23T03:26:53;3.03;;;1.05;;
72728;SDS011;60843;52.062;4.508;2023-03-23T03:29:30;4.90;;;1.50;;
72728;SDS011;60843;52.062;4.508;2023-03-23T03:31:58;4.82;;;1.90;;
72728;SDS011;60843;52.062;4.508;2023-03-23T03:34:28;5.60;;;1.30;;
72728;SDS011;60843;52.062;4.508;2023-03-23T03:36:57;3.88;;;0.73;;
72728;SDS011;60843;52.062;4.508;2023-03-23T03:39:24;5.28;;;1.35;;
72728;SDS011;60843;52.062;4.508;2023-03-23T03:41:50;4.75;;;1.38;;
72728;SDS011;60843;52.062;4.508;2023-03-23T03:44:15;3.20;;;1.53;;
72728;SDS011;60843;52.062;4.508;2023-03-23T03:46:41;2.67;;;1.27;;
72728;SDS011;60843;52.062;4.508;2023-03-23T03:49:07;2.83;;;1.35;;
72728;SDS011;60843;52.062;4.508;2023-03-23T03:51:36;2.30;;;1.38;;
72728;SDS011;60843;52.062;4.508;2023-03-23T03:54:01;4.68;;;1.50;;
72728;SDS011;60843;52.062;4.508;2023-03-23T03:56:27;4.50;;;1.13;;
72728;SDS011;60843;52.062;4.508;2023-03-23T03:58:52;8.57;;;1.63;;
72728;SDS011;60843;52.062;4.508;2023-03-23T04:01:19;6.80;;;1.88;;
72728;SDS011;60843;52.062;4.508;2023-03-23T04:03:48;6.03;;;1.55;;
72728;SDS011;60843;52.062;4.508;2023-03-23T04:06:14;6.40;;;1.80;;
72728;SDS011;60843;52.062;4.508;2023-03-23T04:08:39;7.47;;;1.58;;
72728;SDS011;60843;52.062;4.508;2023-03-23T04:11:06;5.68;;;1.35;;
72728;SDS011;60843;52.062;4.508;2023-03-23T04:13:32;2.90;;;1.27;;
72728;SDS011;60843;52.062;4.508;2023-03-23T04:15:58;5.97;;;1.35;;
72728;SDS011;60843;52.062;4.508;2023-03-23T04:18:23;5.32;;;1.50;;
72728;SDS011;60843;52.062;4.508;2023-03-23T04:20:50;5.20;;;1.50;;
72728;SDS011;60843;52.062;4.508;2023-03-23T04:23:16;5.32;;;1.52;;
72728;SDS011;60843;52.062;4.508;2023-03-23T04:25:47;5.97;;;1.52;;
72728;SDS011;60843;52.062;4.508;2023-03-23T04:28:15;8.60;;;1.80;;
72728;SDS011;60843;52.062;4.508;2023-03-23T04:30:43;5.15;;;1.75;;
72728;SDS011;60843;52.062;4.508;2023-03-23T04:33:09;5.07;;;1.33;;
72728;SDS011;60843;52.062;4.508;2023-03-23T04:35:39;10.70;;;1.40;;
72728;SDS011;60843;52.062;4.508;2023-03-23T04:38:05;15.60;;;1.70;;
72728;SDS011;60843;52.062;4.508;2023-03-23T04:40:39;4.90;;;1.23;;
72728;SDS011;60843;52.062;4.508;2023-03-23T04:43:05;6.90;;;1.48;;
72728;SDS011;60843;52.062;4.508;2023-03-23T04:45:32;10.27;;;1.42;;
72728;SDS011;60843;52.062;4.508;2023-03-23T04:48:00;9.07;;;1.55;;
72728;SDS011;60843;52.062;4.508;2023-03-23T04:50:29;8.48;;;1.38;;
72728;SDS011;60843;52.062;4.508;2023-03-23T04:52:57;6.15;;;1.63;;
72728;SDS011;60843;52.062;4.508;2023-03-23T04:55:24;6.70;;;1.30;;
72728;SDS011;60843;52.062;4.508;2023-03-23T04:57:50;6.45;;;1.60;;
72728;SDS011;60843;52.062;4.508;2023-03-23T05:00:16;6.10;;;1.30;;
72728;SDS011;60843;52.062;4.508;2023-03-23T05:02:43;7.72;;;1.50;;
72728;SDS011;60843;52.062;4.508;2023-03-23T05:05:11;9.90;;;1.75;;
72728;SDS011;60843;52.062;4.508;2023-03-23T05:07:39;9.82;;;1.52;;
72728;SDS011;60843;52.062;4.508;2023-03-23T05:10:05;9.57;;;1.80;;
72728;SDS011;60843;52.062;4.508;2023-03-23T05:12:32;8.55;;;1.90;;
72728;SDS011;60843;52.062;4.508;2023-03-23T05:14:58;9.43;;;2.53;;
72728;SDS011;60843;52.062;4.508;2023-03-23T05:17:24;8.43;;;2.13;;
72728;SDS011;60843;52.062;4.508;2023-03-23T05:19:50;9.20;;;1.73;;
72728;SDS011;60843;52.062;4.508;2023-03-23T05:22:17;8.43;;;1.80;;
72728;SDS011;60843;52.062;4.508;2023-03-23T05:24:42;12.30;;;1.92;;
72728;SDS011;60843;52.062;4.508;2023-03-23T05:27:16;10.40;;;1.80;;
72728;SDS011;60843;52.062;4.508;2023-03-23T05:29:44;9.70;;;1.73;;
72728;SDS011;60843;52.062;4.508;2023-03-23T05:32:13;7.70;;;1.95;;
72728;SDS011;60843;52.062;4.508;2023-03-23T05:34:39;9.07;;;1.20;;
72728;SDS011;60843;52.062;4.508;2023-03-23T05:37:05;20.52;;;2.45;;
72728;SDS011;60843;52.062;4.508;2023-03-23T05:39:36;13.65;;;2.45;;
72728;SDS011;60843;52.062;4.508;2023-03-23T05:42:02;11.55;;;1.80;;
72728;SDS011;60843;52.062;4.508;2023-03-23T05:44:29;9.05;;;1.55;;
72728;SDS011;60843;52.062;4.508;2023-03-23T05:46:54;10.20;;;1.98;;
72728;SDS011;60843;52.062;4.508;2023-03-23T05:49:21;8.05;;;1.52;;
72728;SDS011;60843;52.062;4.508;2023-03-23T05:51:47;18.10;;;2.22;;
72728;SDS011;60843;52.062;4.508;2023-03-23T05:54:14;8.35;;;1.88;;
72728;SDS011;60843;52.062;4.508;2023-03-23T05:56:40;11.43;;;1.35;;
72728;SDS011;60843;52.062;4.508;2023-03-23T05:59:07;7.80;;;1.58;;
72728;SDS011;60843;52.062;4.508;2023-03-23T06:01:33;13.57;;;2.70;;
72728;SDS011;60843;52.062;4.508;2023-03-23T06:03:58;6.77;;;1.43;;
72728;SDS011;60843;52.062;4.508;2023-03-23T06:06:24;10.10;;;1.63;;
72728;SDS011;60843;52.062;4.508;2023-03-23T06:08:50;11.57;;;2.33;;
72728;SDS011;60843;52.062;4.508;2023-03-23T06:11:16;10.45;;;1.88;;
72728;SDS011;60843;52.062;4.508;2023-03-23T06:13:42;11.70;;;1.65;;
72728;SDS011;60843;52.062;4.508;2023-03-23T06:16:08;14.07;;;2.05;;
72728;SDS011;60843;52.062;4.508;2023-03-23T06:18:35;10.95;;;2.03;;
72728;SDS011;60843;52.062;4.508;2023-03-23T06:21:02;12.20;;;1.58;;
72728;SDS011;60843;52.062;4.508;2023-03-23T06:23:28;12.15;;;2.30;;
72728;SDS011;60843;52.062;4.508;2023-03-23T06:25:54;18.75;;;2.25;;
72728;SDS011;60843;52.062;4.508;2023-03-23T06:28:22;18.38;;;2.20;;
72728;SDS011;60843;52.062;4.508;2023-03-23T06:33:19;14.15;;;2.08;;
72728;SDS011;60843;52.062;4.508;2023-03-23T06:35:44;12.80;;;1.55;;
72728;SDS011;60843;52.062;4.508;2023-03-23T06:38:10;9.55;;;2.00;;
72728;SDS011;60843;52.062;4.508;2023-03-23T06:40:36;12.48;;;1.40;;
72728;SDS011;60843;52.062;4.508;2023-03-23T06:43:01;12.27;;;1.17;;
72728;SDS011;60843;52.062;4.508;2023-03-23T06:45:30;17.17;;;2.10;;
72728;SDS011;60843;52.062;4.508;2023-03-23T06:47:56;11.95;;;2.28;;
72728;SDS011;60843;52.062;4.508;2023-03-23T06:50:22;11.57;;;1.77;;
72728;SDS011;60843;52.062;4.508;2023-03-23T06:52:48;15.85;;;1.58;;
72728;SDS011;60843;52.062;4.508;2023-03-23T06:55:15;13.20;;;1.77;;
72728;SDS011;60843;52.062;4.508;2023-03-23T06:57:40;11.65;;;1.60;;
72728;SDS011;60843;52.062;4.508;2023-03-23T07:00:07;10.07;;;2.25;;
72728;SDS011;60843;52.062;4.508;2023-03-23T07:02:37;12.02;;;1.80;;
72728;SDS011;60843;52.062;4.508;2023-03-23T07:05:02;15.18;;;2.65;;
72728;SDS011;60843;52.062;4.508;2023-03-23T07:07:28;9.02;;;1.33;;
72728;SDS011;60843;52.062;4.508;2023-03-23T07:09:54;13.57;;;1.42;;
72728;SDS011;60843;52.062;4.508;2023-03-23T07:12:22;13.35;;;1.60;;
72728;SDS011;60843;52.062;4.508;2023-03-23T07:14:48;12.75;;;2.00;;
72728;SDS011;60843;52.062;4.508;2023-03-23T07:17:14;14.18;;;1.83;;
72728;SDS011;60843;52.062;4.508;2023-03-23T07:19:40;9.25;;;1.50;;
72728;SDS011;60843;52.062;4.508;2023-03-23T07:22:06;10.13;;;1.90;;
72728;SDS011;60843;52.062;4.508;2023-03-23T07:24:34;10.68;;;1.45;;
72728;SDS011;60843;52.062;4.508;2023-03-23T07:26:59;7.28;;;1.80;;
72728;SDS011;60843;52.062;4.508;2023-03-23T07:29:25;10.68;;;1.65;;
72728;SDS011;60843;52.062;4.508;2023-03-23T07:31:51;12.80;;;1.48;;
72728;SDS011;60843;52.062;4.508;2023-03-23T07:34:18;13.93;;;2.10;;
72728;SDS011;60843;52.062;4.508;2023-03-23T07:36:44;11.48;;;1.50;;
72728;SDS011;60843;52.062;4.508;2023-03-23T07:39:10;8.75;;;1.60;;
72728;SDS011;60843;52.062;4.508;2023-03-23T07:41:37;11.70;;;1.58;;
72728;SDS011;60843;52.062;4.508;2023-03-23T07:44:02;9.57;;;1.55;;
72728;SDS011;60843;52.062;4.508;2023-03-23T07:46:28;11.95;;;1.60;;
72728;SDS011;60843;52.062;4.508;2023-03-23T07:48:53;10.57;;;1.67;;
72728;SDS011;60843;52.062;4.508;2023-03-23T07:51:19;15.77;;;2.55;;
72728;SDS011;60843;52.062;4.508;2023-03-23T07:53:44;9.90;;;1.35;;
72728;SDS011;60843;52.062;4.508;2023-03-23T07:56:10;7.07;;;1.20;;
72728;SDS011;60843;52.062;4.508;2023-03-23T07:58:37;9.68;;;1.40;;
72728;SDS011;60843;52.062;4.508;2023-03-23T08:01:03;9.90;;;1.67;;
72728;SDS011;60843;52.062;4.508;2023-03-23T08:03:28;6.90;;;1.27;;
72728;SDS011;60843;52.062;4.508;2023-03-23T08:05:57;12.93;;;1.52;;
72728;SDS011;60843;52.062;4.508;2023-03-23T08:08:23;3.92;;;0.90;;
72728;SDS011;60843;52.062;4.508;2023-03-23T08:10:49;11.93;;;1.67;;
72728;SDS011;60843;52.062;4.508;2023-03-23T08:13:15;11.93;;;1.50;;
72728;SDS011;60843;52.062;4.508;2023-03-23T08:15:40;9.63;;;1.80;;
72728;SDS011;60843;52.062;4.508;2023-03-23T08:18:06;7.15;;;1.83;;
72728;SDS011;60843;52.062;4.508;2023-03-23T08:20:31;11.05;;;1.75;;
72728;SDS011;60843;52.062;4.508;2023-03-23T08:22:57;9.13;;;1.30;;
72728;SDS011;60843;52.062;4.508;2023-03-23T08:25:24;8.40;;;1.63;;
72728;SDS011;60843;52.062;4.508;2023-03-23T08:27:52;6.95;;;1.30;;
72728;SDS011;60843;52.062;4.508;2023-03-23T08:30:19;9.43;;;1.95;;
72728;SDS011;60843;52.062;4.508;2023-03-23T08:32:46;7.80;;;1.98;;
72728;SDS011;60843;52.062;4.508;2023-03-23T08:35:12;7.25;;;2.50;;
72728;SDS011;60843;52.062;4.508;2023-03-23T08:37:38;11.18;;;1.92;;
72728;SDS011;60843;52.062;4.508;2023-03-23T08:40:06;9.93;;;2.00;;
72728;SDS011;60843;52.062;4.508;2023-03-23T08:42:35;11.43;;;2.72;;
72728;SDS011;60843;52.062;4.508;2023-03-23T08:45:07;6.75;;;1.90;;
72728;SDS011;60843;52.062;4.508;2023-03-23T08:47:34;8.68;;;1.95;;
72728;SDS011;60843;52.062;4.508;2023-03-23T08:50:00;11.43;;;1.83;;
72728;SDS011;60843;52.062;4.508;2023-03-23T08:52:27;13.48;;;2.22;;
72728;SDS011;60843;52.062;4.508;2023-03-23T08:54:53;14.18;;;2.25;;
72728;SDS011;60843;52.062;4.508;2023-03-23T08:57:19;12.18;;;2.00;;
72728;SDS011;60843;52.062;4.508;2023-03-23T08:59:44;10.02;;;1.42;;
72728;SDS011;60843;52.062;4.508;2023-03-23T09:02:10;9.10;;;1.40;;
72728;SDS011;60843;52.062;4.508;2023-03-23T09:04:37;9.60;;;1.88;;
72728;SDS011;60843;52.062;4.508;2023-03-23T09:07:03;13.25;;;1.73;;
72728;SDS011;60843;52.062;4.508;2023-03-23T09:09:28;13.10;;;1.50;;
72728;SDS011;60843;52.062;4.508;2023-03-23T09:11:56;14.40;;;2.00;;
72728;SDS011;60843;52.062;4.508;2023-03-23T09:14:24;11.90;;;2.50;;
72728;SDS011;60843;52.062;4.508;2023-03-23T09:16:49;10.65;;;1.38;;
72728;SDS011;60843;52.062;4.508;2023-03-23T09:19:15;7.00;;;1.30;;
72728;SDS011;60843;52.062;4.508;2023-03-23T09:21:42;13.73;;;1.87;;
72728;SDS011;60843;52.062;4.508;2023-03-23T09:24:10;7.35;;;1.40;;
72728;SDS011;60843;52.062;4.508;2023-03-23T09:26:36;11.70;;;1.85;;
72728;SDS011;60843;52.062;4.508;2023-03-23T09:29:01;13.27;;;1.40;;
72728;SDS011;60843;52.062;4.508;2023-03-23T09:31:27;13.13;;;2.20;;
72728;SDS011;60843;52.062;4.508;2023-03-23T09:36:28;6.03;;;0.85;;
72728;SDS011;60843;52.062;4.508;2023-03-23T09:38:57;8.57;;;2.13;;
72728;SDS011;60843;52.062;4.508;2023-03-23T09:41:38;14.10;;;1.70;;
72728;SDS011;60843;52.062;4.508;2023-03-23T09:49:36;13.05;;;1.85;;
72728;SDS011;60843;52.062;4.508;2023-03-23T09:54:46;11.77;;;1.98;;
72728;SDS011;60843;52.062;4.508;2023-03-23T10:05:27;16.80;;;1.73;;
72728;SDS011;60843;52.062;4.508;2023-03-23T10:07:56;4.97;;;1.20;;
72728;SDS011;60843;52.062;4.508;2023-03-23T10:10:24;12.07;;;1.92;;
72728;SDS011;60843;52.062;4.508;2023-03-23T10:15:52;9.93;;;1.67;;
72728;SDS011;60843;52.062;4.508;2023-03-23T10:18:21;11.05;;;1.40;;
72728;SDS011;60843;52.062;4.508;2023-03-23T10:21:02;12.15;;;1.90;;
72728;SDS011;60843;52.062;4.508;2023-03-23T10:23:39;11.52;;;1.63;;
72728;SDS011;60843;52.062;4.508;2023-03-23T10:31:41;19.60;;;1.80;;
72728;SDS011;60843;52.062;4.508;2023-03-23T10:34:28;22.27;;;1.95;;
72728;SDS011;60843;52.062;4.508;2023-03-23T10:39:43;6.68;;;1.33;;
72728;SDS011;60843;52.062;4.508;2023-03-23T10:42:30;16.98;;;2.70;;
72728;SDS011;60843;52.062;4.508;2023-03-23T10:44:59;13.93;;;2.13;;
72728;SDS011;60843;52.062;4.508;2023-03-23T10:47:26;13.32;;;2.38;;
72728;SDS011;60843;52.062;4.508;2023-03-23T10:49:58;17.83;;;2.13;;
72728;SDS011;60843;52.062;4.508;2023-03-23T10:52:41;12.70;;;1.98;;
72728;SDS011;60843;52.062;4.508;2023-03-23T10:55:09;11.05;;;1.95;;
72728;SDS011;60843;52.062;4.508;2023-03-23T10:57:40;13.23;;;1.77;;
72728;SDS011;60843;52.062;4.508;2023-03-23T11:00:17;11.05;;;1.77;;
72728;SDS011;60843;52.062;4.508;2023-03-23T11:03:01;7.47;;;1.15;;
72728;SDS011;60843;52.062;4.508;2023-03-23T11:05:43;14.52;;;1.98;;
72728;SDS011;60843;52.062;4.508;2023-03-23T11:08:15;13.02;;;2.08;;
72728;SDS011;60843;52.062;4.508;2023-03-23T11:10:52;15.95;;;2.28;;
72728;SDS011;60843;52.062;4.508;2023-03-23T11:13:32;13.80;;;2.22;;
72728;SDS011;60843;52.062;4.508;2023-03-23T11:15:59;9.27;;;1.50;;
72728;SDS011;60843;52.062;4.508;2023-03-23T11:21:05;8.00;;;2.15;;
72728;SDS011;60843;52.062;4.508;2023-03-23T11:23:34;10.30;;;1.80;;
72728;SDS011;60843;52.062;4.508;2023-03-23T11:31:38;4.72;;;1.02;;
72728;SDS011;60843;52.062;4.508;2023-03-23T11:34:35;19.17;;;3.08;;
72728;SDS011;60843;52.062;4.508;2023-03-23T11:39:56;6.75;;;1.48;;
72728;SDS011;60843;52.062;4.508;2023-03-23T11:42:45;6.82;;;1.20;;
72728;SDS011;60843;52.062;4.508;2023-03-23T11:48:01;6.57;;;1.45;;
72728;SDS011;60843;52.062;4.508;2023-03-23T11:53:21;11.32;;;1.92;;
72728;SDS011;60843;52.062;4.508;2023-03-23T11:58:35;8.15;;;1.30;;
72728;SDS011;60843;52.062;4.508;2023-03-23T12:06:50;10.45;;;1.40;;
72728;SDS011;60843;52.062;4.508;2023-03-23T12:14:52;6.18;;;1.50;;
72728;SDS011;60843;52.062;4.508;2023-03-23T12:23:24;5.78;;;0.90;;
72728;SDS011;60843;52.062;4.508;2023-03-23T12:28:39;7.68;;;1.30;;
72728;SDS011;60843;52.062;4.508;2023-03-23T12:31:30;4.70;;;1.02;;
72728;SDS011;60843;52.062;4.508;2023-03-23T12:34:06;8.82;;;1.48;;
72728;SDS011;60843;52.062;4.508;2023-03-23T12:47:52;5.85;;;1.10;;
72728;SDS011;60843;52.062;4.508;2023-03-23T12:50:29;7.20;;;1.23;;
72728;SDS011;60843;52.062;4.508;2023-03-23T12:53:18;14.40;;;1.95;;
72728;SDS011;60843;52.062;4.508;2023-03-23T12:56:10;2.83;;;0.90;;
72728;SDS011;60843;52.062;4.508;2023-03-23T12:58:47;6.95;;;1.20;;
72728;SDS011;60843;52.062;4.508;2023-03-23T13:03:57;9.25;;;1.58;;
72728;SDS011;60843;52.062;4.508;2023-03-23T13:06:41;4.65;;;1.15;;
72728;SDS011;60843;52.062;4.508;2023-03-23T13:11:53;5.35;;;1.00;;
72728;SDS011;60843;52.062;4.508;2023-03-23T13:19:55;10.65;;;1.30;;
72728;SDS011;60843;52.062;4.508;2023-03-23T13:22:39;7.60;;;1.88;;
72728;SDS011;60843;52.062;4.508;2023-03-23T13:25:19;8.00;;;1.67;;
72728;SDS011;60843;52.062;4.508;2023-03-23T13:28:01;9.52;;;2.20;;
72728;SDS011;60843;52.062;4.508;2023-03-23T13:30:27;11.85;;;1.73;;
72728;SDS011;60843;52.062;4.508;2023-03-23T13:35:42;11.50;;;2.28;;
72728;SDS011;60843;52.062;4.508;2023-03-23T13:38:21;12.05;;;1.95;;
72728;SDS011;60843;52.062;4.508;2023-03-23T13:40:49;8.82;;;1.65;;
72728;SDS011;60843;52.062;4.508;2023-03-23T13:43:24;11.45;;;1.73;;
72728;SDS011;60843;52.062;4.508;2023-03-23T13:46:12;9.32;;;1.70;;
72728;SDS011;60843;52.062;4.508;2023-03-23T13:54:31;7.68;;;1.60;;
72728;SDS011;60843;52.062;4.508;2023-03-23T13:57:19;12.85;;;1.77;;
72728;SDS011;60843;52.062;4.508;2023-03-23T13:59:55;9.50;;;1.30;;
72728;SDS011;60843;52.062;4.508;2023-03-23T14:05:08;12.25;;;1.85;;
72728;SDS011;60843;52.062;4.508;2023-03-23T14:07:54;11.43;;;1.90;;
72728;SDS011;60843;52.062;4.508;2023-03-23T14:10:23;11.05;;;1.17;;
72728;SDS011;60843;52.062;4.508;2023-03-23T14:12:56;5.82;;;1.10;;
72728;SDS011;60843;52.062;4.508;2023-03-23T14:15:27;6.60;;;1.40;;
72728;SDS011;60843;52.062;4.508;2023-03-23T14:17:53;7.25;;;1.40;;
72728;SDS011;60843;52.062;4.508;2023-03-23T14:20:21;7.95;;;1.50;;
72728;SDS011;60843;52.062;4.508;2023-03-23T14:22:53;7.13;;;1.35;;
72728;SDS011;60843;52.062;4.508;2023-03-23T14:25:20;5.85;;;1.38;;
72728;SDS011;60843;52.062;4.508;2023-03-23T14:27:47;9.95;;;2.00;;
72728;SDS011;60843;52.062;4.508;2023-03-23T14:30:14;10.27;;;2.22;;
72728;SDS011;60843;52.062;4.508;2023-03-23T14:32:41;10.20;;;1.60;;
72728;SDS011;60843;52.062;4.508;2023-03-23T14:35:08;16.00;;;1.83;;
72728;SDS011;60843;52.062;4.508;2023-03-23T14:37:39;12.82;;;1.55;;
72728;SDS011;60843;52.062;4.508;2023-03-23T14:40:04;2.57;;;0.70;;
72728;SDS011;60843;52.062;4.508;2023-03-23T14:42:32;11.65;;;1.70;;
72728;SDS011;60843;52.062;4.508;2023-03-23T14:44:59;13.45;;;1.75;;
72728;SDS011;60843;52.062;4.508;2023-03-23T14:47:27;14.65;;;2.00;;
72728;SDS011;60843;52.062;4.508;2023-03-23T14:49:55;10.80;;;2.35;;
72728;SDS011;60843;52.062;4.508;2023-03-23T14:52:23;10.88;;;2.00;;
72728;SDS011;60843;52.062;4.508;2023-03-23T14:54:50;11.90;;;1.73;;
72728;SDS011;60843;52.062;4.508;2023-03-23T14:57:17;11.63;;;2.13;;
72728;SDS011;60843;52.062;4.508;2023-03-23T14:59:44;8.18;;;1.55;;
72728;SDS011;60843;52.062;4.508;2023-03-23T15:02:15;14.73;;;2.03;;
72728;SDS011;60843;52.062;4.508;2023-03-23T15:04:43;10.35;;;1.70;;
72728;SDS011;60843;52.062;4.508;2023-03-23T15:07:10;12.45;;;1.92;;
72728;SDS011;60843;52.062;4.508;2023-03-23T15:09:38;9.85;;;2.13;;
72728;SDS011;60843;52.062;4.508;2023-03-23T15:12:05;9.85;;;1.60;;
72728;SDS011;60843;52.062;4.508;2023-03-23T15:14:36;9.50;;;1.70;;
72728;SDS011;60843;52.062;4.508;2023-03-23T15:17:11;11.73;;;1.58;;
72728;SDS011;60843;52.062;4.508;2023-03-23T15:19:44;9.63;;;1.60;;
72728;SDS011;60843;52.062;4.508;2023-03-23T15:24:52;14.70;;;1.80;;
72728;SDS011;60843;52.062;4.508;2023-03-23T15:27:34;12.43;;;1.60;;
72728;SDS011;60843;52.062;4.508;2023-03-23T15:32:52;11.10;;;2.13;;
72728;SDS011;60843;52.062;4.508;2023-03-23T15:35:23;12.18;;;2.20;;
72728;SDS011;60843;52.062;4.508;2023-03-23T15:38:00;8.13;;;1.13;;
72728;SDS011;60843;52.062;4.508;2023-03-23T15:40:32;11.52;;;2.28;;
72728;SDS011;60843;52.062;4.508;2023-03-23T15:43:07;12.48;;;1.60;;
72728;SDS011;60843;52.062;4.508;2023-03-23T15:45:59;12.88;;;1.77;;
72728;SDS011;60843;52.062;4.508;2023-03-23T15:51:15;9.30;;;0.98;;
72728;SDS011;60843;52.062;4.508;2023-03-23T15:53:52;15.18;;;2.20;;
72728;SDS011;60843;52.062;4.508;2023-03-23T15:56:26;11.23;;;1.75;;
72728;SDS011;60843;52.062;4.508;2023-03-23T15:58:52;10.60;;;1.67;;
72728;SDS011;60843;52.062;4.508;2023-03-23T16:01:19;15.73;;;2.00;;
72728;SDS011;60843;52.062;4.508;2023-03-23T16:06:29;14.93;;;2.08;;
72728;SDS011;60843;52.062;4.508;2023-03-23T16:08:56;10.65;;;1.60;;
72728;SDS011;60843;52.062;4.508;2023-03-23T16:11:22;10.57;;;2.10;;
72728;SDS011;60843;52.062;4.508;2023-03-23T16:13:48;11.57;;;1.73;;
72728;SDS011;60843;52.062;4.508;2023-03-23T16:18:42;12.75;;;2.08;;
72728;SDS011;60843;52.062;4.508;2023-03-23T16:21:08;15.18;;;2.50;;
72728;SDS011;60843;52.062;4.508;2023-03-23T16:23:34;18.15;;;2.53;;
72728;SDS011;60843;52.062;4.508;2023-03-23T16:26:00;10.43;;;2.00;;
72728;SDS011;60843;52.062;4.508;2023-03-23T16:28:25;15.80;;;2.33;;
72728;SDS011;60843;52.062;4.508;2023-03-23T16:30:51;13.32;;;1.70;;
72728;SDS011;60843;52.062;4.508;2023-03-23T16:33:17;10.45;;;1.67;;
72728;SDS011;60843;52.062;4.508;2023-03-23T16:35:42;9.88;;;1.83;;
72728;SDS011;60843;52.062;4.508;2023-03-23T16:38:10;17.93;;;2.40;;
72728;SDS011;60843;52.062;4.508;2023-03-23T16:40:40;14.27;;;2.55;;
72728;SDS011;60843;52.062;4.508;2023-03-23T16:43:07;19.75;;;2.00;;
72728;SDS011;60843;52.062;4.508;2023-03-23T16:45:32;14.68;;;2.58;;
72728;SDS011;60843;52.062;4.508;2023-03-23T16:47:58;13.73;;;1.98;;
72728;SDS011;60843;52.062;4.508;2023-03-23T16:50:26;13.55;;;2.17;;
72728;SDS011;60843;52.062;4.508;2023-03-23T16:52:52;13.25;;;2.15;;
72728;SDS011;60843;52.062;4.508;2023-03-23T16:55:18;14.55;;;2.33;;
72728;SDS011;60843;52.062;4.508;2023-03-23T16:57:45;8.80;;;1.95;;
72728;SDS011;60843;52.062;4.508;2023-03-23T17:00:12;15.07;;;2.35;;
72728;SDS011;60843;52.062;4.508;2023-03-23T17:02:42;15.82;;;3.05;;
72728;SDS011;60843;52.062;4.508;2023-03-23T17:05:09;11.52;;;2.03;;
72728;SDS011;60843;52.062;4.508;2023-03-23T17:07:35;19.95;;;2.80;;
72728;SDS011;60843;52.062;4.508;2023-03-23T17:10:02;20.25;;;2.58;;
72728;SDS011;60843;52.062;4.508;2023-03-23T17:12:31;13.43;;;2.10;;
72728;SDS011;60843;52.062;4.508;2023-03-23T17:14:57;11.50;;;2.17;;
72728;SDS011;60843;52.062;4.508;2023-03-23T17:17:22;13.55;;;2.00;;
72728;SDS011;60843;52.062;4.508;2023-03-23T17:19:48;18.27;;;2.72;;
72728;SDS011;60843;52.062;4.508;2023-03-23T17:22:14;12.10;;;2.55;;
72728;SDS011;60843;52.062;4.508;2023-03-23T17:24:42;17.35;;;2.83;;
72728;SDS011;60843;52.062;4.508;2023-03-23T17:27:08;13.00;;;2.67;;
72728;SDS011;60843;52.062;4.508;2023-03-23T17:29:37;17.75;;;3.40;;
72728;SDS011;60843;52.062;4.508;2023-03-23T17:32:03;14.63;;;2.65;;